createdAt,value
2018-06-09T00:00:54.649Z,20.24
2018-06-09T00:03:24.229Z,20.20
2018-06-09T00:05:53.689Z,20.19
2018-06-09T00:08:23.444Z,20.25
2018-06-09T00:10:52.771Z,20.10
2018-06-09T00:13:21.992Z,20.13
2018-06-09T00:15:51.827Z,20.09
2018-06-09T00:18:21.040Z,19.99
2018-06-09T00:20:50.341Z,20.06
2018-06-09T00:23:19.672Z,20.02
2018-06-09T00:25:48.827Z,20.12
2018-06-09T00:28:18.004Z,19.98
2018-06-09T00:30:47.794Z,19.95
2018-06-09T00:33:16.987Z,19.87
2018-06-09T00:35:46.340Z,19.89
2018-06-09T00:38:15.567Z,19.81
2018-06-09T00:40:44.760Z,19.82
2018-06-09T00:43:14.072Z,19.82
2018-06-09T00:45:43.341Z,19.81
2018-06-09T00:48:12.734Z,19.82
2018-06-09T00:50:42.006Z,19.79
2018-06-09T00:53:11.539Z,19.74
2018-06-09T00:55:40.811Z,19.73
2018-06-09T00:58:10.099Z,19.73
2018-06-09T01:00:39.368Z,19.85
2018-06-09T01:03:08.699Z,19.91
2018-06-09T01:05:38.044Z,19.85
2018-06-09T01:08:07.522Z,19.76
2018-06-09T01:10:36.881Z,19.87
2018-06-09T01:13:06.416Z,19.89
2018-06-09T01:15:35.989Z,19.91
2018-06-09T01:18:05.399Z,19.94
2018-06-09T01:20:35.067Z,19.89
2018-06-09T01:23:04.729Z,19.75
2018-06-09T01:25:34.327Z,19.67
2018-06-09T01:28:04.032Z,19.63
2018-06-09T01:30:33.982Z,19.53
2018-06-09T01:33:03.581Z,19.67
2018-06-09T01:35:33.427Z,19.69
2018-06-09T01:38:05.021Z,19.68
2018-06-09T01:40:34.797Z,19.61
2018-06-09T01:43:04.132Z,19.58
2018-06-09T01:45:34.120Z,19.59
2018-06-09T01:48:03.745Z,19.64
2018-06-09T01:50:33.289Z,19.66
2018-06-09T01:53:02.842Z,19.56
2018-06-09T01:55:32.313Z,19.60
2018-06-09T01:58:01.742Z,19.55
2018-06-09T02:00:31.552Z,19.60
2018-06-09T02:03:01.088Z,19.54
2018-06-09T02:05:30.615Z,19.45
2018-06-09T02:08:01.010Z,19.43
2018-06-09T02:10:31.055Z,19.38
2018-06-09T02:13:00.583Z,19.34
2018-06-09T02:15:31.019Z,19.23
2018-06-09T02:18:00.854Z,19.23
2018-06-09T02:20:30.644Z,19.21
2018-06-09T02:23:00.249Z,19.16
2018-06-09T02:25:29.826Z,19.14
2018-06-09T02:27:59.712Z,19.13
2018-06-09T02:30:29.678Z,19.11
2018-06-09T02:32:59.241Z,19.12
2018-06-09T02:35:29.013Z,19.17
2018-06-09T02:37:59.481Z,19.20
2018-06-09T02:40:28.882Z,19.19
2018-06-09T02:42:58.739Z,19.21
2018-06-09T02:45:28.710Z,19.20
2018-06-09T02:47:58.345Z,19.24
2018-06-09T02:50:27.732Z,19.28
2018-06-09T02:52:57.273Z,19.26
2018-06-09T02:55:26.953Z,19.34
2018-06-09T02:57:56.405Z,19.40
2018-06-09T03:00:28.047Z,19.52
2018-06-09T03:02:57.443Z,19.47
2018-06-09T03:05:26.845Z,19.57
2018-06-09T03:07:56.294Z,19.49
2018-06-09T03:10:25.661Z,19.49
2018-06-09T03:12:55.098Z,19.46
2018-06-09T03:15:24.777Z,19.54
2018-06-09T03:17:54.173Z,19.62
2018-06-09T03:20:23.546Z,19.59
2018-06-09T03:22:53.503Z,19.72
2018-06-09T03:25:22.762Z,19.70
2018-06-09T03:27:52.164Z,19.73
2018-06-09T03:30:21.618Z,19.71
2018-06-09T03:32:50.963Z,19.74
2018-06-09T03:35:20.158Z,19.68
2018-06-09T03:37:49.912Z,19.75
2018-06-09T03:40:19.107Z,19.67
2018-06-09T03:42:48.405Z,19.71
2018-06-09T03:45:18.029Z,19.78
2018-06-09T03:47:47.248Z,19.74
2018-06-09T03:50:17.161Z,19.83
2018-06-09T03:52:46.797Z,19.86
2018-06-09T03:55:15.967Z,19.81
2018-06-09T03:57:45.263Z,19.82
2018-06-09T04:00:14.487Z,19.88
2018-06-09T04:02:43.806Z,19.82
2018-06-09T04:05:12.950Z,19.97
2018-06-09T04:07:42.369Z,19.87
2018-06-09T04:10:11.623Z,19.94
2018-06-09T04:12:41.004Z,19.95
2018-06-09T04:15:10.201Z,19.82
2018-06-09T04:17:39.424Z,19.84
2018-06-09T04:20:08.610Z,19.80
2018-06-09T04:22:37.859Z,19.95
2018-06-09T04:25:07.150Z,19.81
2018-06-09T04:27:36.370Z,19.89
2018-06-09T04:30:05.697Z,19.84
2018-06-09T04:32:35.002Z,19.82
2018-06-09T04:35:04.377Z,19.76
2018-06-09T04:37:34.243Z,19.74
2018-06-09T04:40:03.744Z,19.69
2018-06-09T04:42:33.674Z,19.81
2018-06-09T04:45:03.351Z,19.95
2018-06-09T04:47:32.982Z,20.17
2018-06-09T04:50:02.273Z,20.19
2018-06-09T04:52:32.693Z,20.24
2018-06-09T04:55:02.069Z,20.23
2018-06-09T04:57:31.660Z,20.27
2018-06-09T05:00:01.571Z,20.50
2018-06-09T05:02:30.944Z,20.52
2018-06-09T05:05:00.388Z,20.57
2018-06-09T05:07:30.422Z,20.57
2018-06-09T05:09:59.822Z,20.48
2018-06-09T05:12:29.356Z,20.53
2018-06-09T05:14:59.182Z,20.59
2018-06-09T05:17:28.719Z,20.35
2018-06-09T05:19:58.839Z,20.42
2018-06-09T05:22:29.482Z,20.47
2018-06-09T05:24:58.946Z,20.67
2018-06-09T05:27:28.497Z,20.95
2018-06-09T05:29:58.323Z,21.08
2018-06-09T05:32:27.650Z,21.33
2018-06-09T05:34:56.977Z,21.55
2018-06-09T05:37:26.392Z,21.88
2018-06-09T05:39:55.771Z,22.17
2018-06-09T05:42:25.304Z,22.52
2018-06-09T05:44:54.885Z,22.59
2018-06-09T05:47:24.386Z,22.67
2018-06-09T05:49:54.024Z,22.64
2018-06-09T05:52:23.853Z,22.59
2018-06-09T05:54:53.299Z,22.51
2018-06-09T05:57:22.747Z,22.64
2018-06-09T05:59:52.079Z,22.71
2018-06-09T06:02:21.459Z,22.72
2018-06-09T06:04:50.728Z,22.70
2018-06-09T06:07:20.020Z,22.76
2018-06-09T06:09:49.257Z,22.76
2018-06-09T06:12:18.607Z,22.71
2018-06-09T06:14:48.111Z,22.62
2018-06-09T06:17:17.819Z,22.65
2018-06-09T06:19:47.170Z,22.55
2018-06-09T06:22:16.449Z,22.53
2018-06-09T06:24:45.764Z,22.47
2018-06-09T06:27:15.044Z,22.43
2018-06-09T06:29:44.485Z,22.49
2018-06-09T06:32:13.863Z,22.57
2018-06-09T06:34:43.108Z,22.59
2018-06-09T06:37:12.711Z,22.66
2018-06-09T06:39:42.031Z,22.78
2018-06-09T06:42:11.276Z,23.09
2018-06-09T06:44:40.631Z,23.17
2018-06-09T06:47:10.042Z,23.20
2018-06-09T06:49:39.302Z,23.37
2018-06-09T06:52:08.629Z,23.57
2018-06-09T06:54:37.983Z,23.70
2018-06-09T06:57:07.348Z,23.73
2018-06-09T06:59:36.878Z,23.90
2018-06-09T07:02:06.264Z,23.94
2018-06-09T07:04:35.795Z,24.03
2018-06-09T07:07:05.511Z,24.03
2018-06-09T07:09:34.977Z,23.96
2018-06-09T07:12:04.425Z,23.92
2018-06-09T07:14:33.779Z,23.86
2018-06-09T07:17:03.859Z,23.76
2018-06-09T07:19:33.282Z,23.38
2018-06-09T07:22:02.956Z,23.08
2018-06-09T07:24:32.868Z,23.22
2018-06-09T07:27:02.420Z,23.28
2018-06-09T07:29:31.990Z,23.19
2018-06-09T07:32:01.710Z,23.36
2018-06-09T07:34:31.490Z,23.58
2018-06-09T07:37:01.726Z,23.69
2018-06-09T07:39:31.312Z,23.75
2018-06-09T07:42:01.479Z,24.03
2018-06-09T07:44:34.128Z,24.11
2018-06-09T07:47:04.062Z,24.52
2018-06-09T07:49:33.654Z,24.52
2018-06-09T07:52:03.608Z,24.97
2018-06-09T07:54:33.288Z,25.45
2018-06-09T07:57:02.928Z,25.35
2018-06-09T07:59:33.229Z,25.27
2018-06-09T08:02:02.703Z,25.54
2018-06-09T08:04:32.131Z,25.60
2018-06-09T08:07:01.627Z,25.67
2018-06-09T08:09:31.130Z,24.93
2018-06-09T08:12:01.141Z,25.26
2018-06-09T08:14:30.620Z,25.74
2018-06-09T08:17:00.432Z,26.14
2018-06-09T08:19:30.129Z,25.88
2018-06-09T08:22:00.098Z,25.26
2018-06-09T08:24:30.293Z,25.41
2018-06-09T08:27:00.514Z,25.72
2018-06-09T08:29:30.052Z,25.81
2018-06-09T08:32:00.267Z,25.40
2018-06-09T08:34:29.949Z,25.31
2018-06-09T08:36:59.928Z,25.50
2018-06-09T08:39:29.828Z,25.94
2018-06-09T08:42:00.374Z,26.38
2018-06-09T08:44:29.859Z,26.52
2018-06-09T08:47:00.359Z,26.86
2018-06-09T08:49:30.171Z,26.17
2018-06-09T08:51:59.983Z,26.19
2018-06-09T08:54:29.768Z,26.11
2018-06-09T08:56:59.495Z,26.31
2018-06-09T08:59:29.115Z,26.06
2018-06-09T09:01:58.529Z,26.91
2018-06-09T09:04:28.213Z,27.03
2018-06-09T09:06:58.042Z,26.96
2018-06-09T09:09:27.690Z,27.25
2018-06-09T09:11:57.816Z,26.75
2018-06-09T09:14:27.324Z,26.25
2018-06-09T09:16:56.853Z,26.34
2018-06-09T09:19:26.839Z,26.89
2018-06-09T09:21:56.737Z,26.81
2018-06-09T09:24:26.427Z,26.67
2018-06-09T09:26:56.571Z,27.01
2018-06-09T09:29:25.947Z,26.83
2018-06-09T09:31:55.455Z,26.48
2018-06-09T09:34:25.534Z,26.51
2018-06-09T09:36:55.302Z,26.42
2018-06-09T09:39:25.261Z,26.16
2018-06-09T09:41:55.384Z,26.21
2018-06-09T09:44:24.825Z,26.03
2018-06-09T09:46:54.228Z,26.23
2018-06-09T09:49:24.436Z,26.16
2018-06-09T09:51:54.053Z,26.10
2018-06-09T09:54:23.700Z,25.87
2018-06-09T09:56:53.159Z,25.63
2018-06-09T09:59:22.777Z,25.46
2018-06-09T10:01:52.141Z,25.24
2018-06-09T10:04:21.495Z,25.24
2018-06-09T10:06:50.880Z,25.28
2018-06-09T10:09:20.437Z,25.28
2018-06-09T10:11:50.337Z,25.51
2018-06-09T10:14:21.465Z,25.31
2018-06-09T10:16:51.074Z,25.48
2018-06-09T10:19:20.892Z,25.16
2018-06-09T10:21:50.188Z,24.97
2018-06-09T10:24:19.460Z,24.78
2018-06-09T10:26:48.791Z,24.80
2018-06-09T10:29:23.872Z,24.55
2018-06-09T10:31:55.201Z,24.52
2018-06-09T10:34:25.341Z,24.38
2018-06-09T10:36:55.144Z,24.40
2018-06-09T10:39:24.741Z,24.48
2018-06-09T10:41:54.463Z,24.31
2018-06-09T10:44:25.148Z,24.29
2018-06-09T10:46:54.639Z,24.31
2018-06-09T10:49:24.391Z,24.30
2018-06-09T10:51:53.976Z,24.48
2018-06-09T10:54:24.554Z,24.59
2018-06-09T10:56:54.212Z,24.75
2018-06-09T10:59:24.155Z,24.57
2018-06-09T11:01:53.693Z,24.43
2018-06-09T11:04:23.606Z,24.24
2018-06-09T11:06:53.352Z,24.20
2018-06-09T11:09:22.764Z,23.88
2018-06-09T11:11:53.191Z,23.85
2018-06-09T11:14:22.501Z,24.11
2018-06-09T11:16:53.065Z,24.27
2018-06-09T11:19:22.447Z,24.29
2018-06-09T11:21:51.783Z,24.21
2018-06-09T11:24:21.126Z,24.14
2018-06-09T11:26:50.521Z,24.23
2018-06-09T11:29:19.913Z,24.31
2018-06-09T11:31:49.337Z,24.31
2018-06-09T11:34:18.634Z,24.28
2018-06-09T11:36:48.036Z,24.33
2018-06-09T11:39:17.379Z,24.35
2018-06-09T11:41:47.052Z,24.42
2018-06-09T11:44:16.434Z,24.52
2018-06-09T11:46:45.746Z,24.63
2018-06-09T11:49:15.171Z,24.65
2018-06-09T11:51:44.502Z,24.82
2018-06-09T11:54:13.774Z,24.80
2018-06-09T11:56:43.792Z,24.66
2018-06-09T11:59:13.077Z,24.50
2018-06-09T12:01:42.436Z,24.47
2018-06-09T12:04:11.898Z,24.44
2018-06-09T12:06:41.470Z,24.53
2018-06-09T12:09:10.829Z,24.34
2018-06-09T12:11:40.149Z,24.58
2018-06-09T12:14:09.442Z,24.71
2018-06-09T12:16:38.984Z,24.93
2018-06-09T12:19:08.498Z,24.89
2018-06-09T12:21:37.853Z,24.88
2018-06-09T12:24:07.211Z,24.71
2018-06-09T12:26:36.724Z,24.37
2018-06-09T12:29:06.025Z,24.18
2018-06-09T12:31:35.525Z,24.07
2018-06-09T12:34:05.549Z,24.32
2018-06-09T12:36:34.846Z,24.53
2018-06-09T12:39:05.821Z,24.48
2018-06-09T12:41:35.464Z,24.44
2018-06-09T12:44:04.823Z,24.40
2018-06-09T12:46:35.045Z,24.30
2018-06-09T12:49:05.423Z,24.42
2018-06-09T12:51:35.073Z,24.48
2018-06-09T12:54:04.891Z,24.70
2018-06-09T12:56:35.323Z,25.05
2018-06-09T12:59:04.880Z,25.40
2018-06-09T13:01:34.242Z,25.39
2018-06-09T13:04:03.799Z,25.53
2018-06-09T13:06:36.977Z,25.47
2018-06-09T13:09:11.627Z,25.66
2018-06-09T13:11:42.078Z,25.41
2018-06-09T13:14:12.367Z,25.47
2018-06-09T13:16:43.661Z,25.53
2018-06-09T13:19:16.705Z,25.85
2018-06-09T13:21:49.829Z,26.02
2018-06-09T13:24:19.584Z,26.05
2018-06-09T13:26:51.913Z,26.13
2018-06-09T13:29:21.666Z,25.73
2018-06-09T13:31:50.881Z,26.03
2018-06-09T13:34:20.085Z,25.99
2018-06-09T13:36:53.110Z,25.83
2018-06-09T13:39:22.789Z,25.74
2018-06-09T13:41:52.237Z,25.58
2018-06-09T13:44:21.600Z,25.67
2018-06-09T13:46:50.914Z,25.75
2018-06-09T13:49:21.533Z,25.71
2018-06-09T13:51:52.377Z,25.80
2018-06-09T13:54:22.263Z,25.79
2018-06-09T13:56:52.297Z,25.71
2018-06-09T13:59:23.001Z,25.56
2018-06-09T14:01:54.493Z,25.43
2018-06-09T14:04:24.676Z,25.36
2018-06-09T14:06:54.472Z,25.30
2018-06-09T14:09:24.413Z,25.21
2018-06-09T14:11:54.259Z,25.20
2018-06-09T14:14:24.305Z,25.13
2018-06-09T14:16:54.930Z,24.91
2018-06-09T14:19:26.860Z,24.93
2018-06-09T14:21:56.534Z,25.03
2018-06-09T14:24:27.608Z,24.94
2018-06-09T14:26:57.984Z,25.13
2018-06-09T14:29:27.448Z,25.23
2018-06-09T14:31:57.166Z,25.28
2018-06-09T14:34:26.824Z,25.43
2018-06-09T14:37:00.763Z,25.50
2018-06-09T14:39:30.757Z,25.32
2018-06-09T14:42:01.887Z,25.31
2018-06-09T14:44:31.459Z,25.26
2018-06-09T14:47:01.287Z,25.06
2018-06-09T14:49:31.499Z,24.94
2018-06-09T14:52:01.823Z,24.88
2018-06-09T14:54:31.749Z,24.98
2018-06-09T14:57:01.625Z,24.95
2018-06-09T14:59:31.942Z,24.95
2018-06-09T15:02:02.270Z,24.91
2018-06-09T15:04:31.984Z,24.83
2018-06-09T15:07:02.142Z,24.83
2018-06-09T15:09:32.204Z,25.02
2018-06-09T15:12:02.163Z,25.33
2018-06-09T15:14:31.912Z,25.66
2018-06-09T15:17:01.660Z,25.86
2018-06-09T15:19:31.115Z,26.06
2018-06-09T15:22:01.003Z,26.06
2018-06-09T15:24:30.510Z,26.32
2018-06-09T15:26:59.952Z,26.27
2018-06-09T15:29:29.659Z,26.19
2018-06-09T15:31:59.185Z,26.26
2018-06-09T15:34:28.872Z,26.15
2018-06-09T15:36:58.480Z,26.29
2018-06-09T15:39:29.361Z,26.77
2018-06-09T15:41:59.069Z,26.89
2018-06-09T15:44:28.736Z,26.99
2018-06-09T15:46:58.400Z,27.33
2018-06-09T15:49:28.686Z,27.18
2018-06-09T15:51:58.350Z,27.31
2018-06-09T15:54:28.378Z,27.80
2018-06-09T15:56:58.633Z,27.89
2018-06-09T15:59:28.045Z,28.24
2018-06-09T16:01:57.653Z,28.36
2018-06-09T16:04:27.159Z,28.65
2018-06-09T16:06:57.077Z,29.21
2018-06-09T16:09:26.755Z,28.99
2018-06-09T16:11:56.291Z,29.32
2018-06-09T16:14:26.752Z,29.25
2018-06-09T16:16:57.639Z,29.44
2018-06-09T16:19:28.100Z,29.77
2018-06-09T16:21:58.090Z,29.87
2018-06-09T16:24:28.425Z,29.84
2018-06-09T16:26:58.404Z,30.08
2018-06-09T16:29:27.921Z,29.60
2018-06-09T16:31:57.440Z,28.69
2018-06-09T16:34:27.420Z,28.08
2018-06-09T16:36:57.508Z,27.77
2018-06-09T16:39:27.764Z,27.24
2018-06-09T16:41:57.670Z,26.80
2018-06-09T16:44:27.363Z,26.82
2018-06-09T16:46:57.090Z,26.77
2018-06-09T16:49:27.100Z,26.39
2018-06-09T16:51:57.175Z,26.27
2018-06-09T16:54:27.253Z,26.46
2018-06-09T16:56:57.108Z,26.66
2018-06-09T16:59:26.645Z,26.78
2018-06-09T17:01:56.746Z,26.68
2018-06-09T17:04:28.693Z,26.49
2018-06-09T17:06:59.216Z,26.58
2018-06-09T17:09:29.296Z,26.55
2018-06-09T17:11:58.977Z,26.31
2018-06-09T17:14:29.085Z,26.06
2018-06-09T17:16:58.639Z,26.29
2018-06-09T17:19:28.241Z,26.86
2018-06-09T17:21:58.410Z,27.08
2018-06-09T17:24:28.112Z,27.33
2018-06-09T17:26:57.948Z,27.63
2018-06-09T17:29:27.837Z,27.52
2018-06-09T17:31:57.644Z,27.41
2018-06-09T17:34:27.313Z,27.55
2018-06-09T17:36:57.151Z,27.66
2018-06-09T17:39:27.045Z,27.27
2018-06-09T17:41:56.902Z,26.94
2018-06-09T17:44:26.813Z,26.58
2018-06-09T17:46:56.276Z,26.59
2018-06-09T17:49:25.928Z,26.25
2018-06-09T17:51:55.728Z,26.06
2018-06-09T17:54:26.754Z,25.86
2018-06-09T17:56:56.832Z,25.79
2018-06-09T17:59:26.411Z,25.58
2018-06-09T18:01:56.117Z,25.53
2018-06-09T18:04:26.907Z,25.31
2018-06-09T18:06:58.089Z,25.26
2018-06-09T18:09:28.041Z,25.26
2018-06-09T18:11:57.859Z,25.20
2018-06-09T18:14:28.046Z,25.13
2018-06-09T18:16:57.956Z,25.06
2018-06-09T18:19:27.635Z,25.05
2018-06-09T18:21:57.024Z,25.03
2018-06-09T18:24:26.537Z,24.90
2018-06-09T18:26:56.137Z,24.87
2018-06-09T18:29:25.648Z,24.81
2018-06-09T18:31:55.229Z,24.76
2018-06-09T18:34:25.155Z,24.59
2018-06-09T18:36:54.926Z,24.47
2018-06-09T18:39:25.146Z,24.40
2018-06-09T18:41:54.828Z,24.42
2018-06-09T18:44:24.318Z,24.31
2018-06-09T18:46:53.793Z,24.24
2018-06-09T18:49:23.105Z,24.16
2018-06-09T18:51:52.680Z,24.21
2018-06-09T18:54:22.365Z,24.11
2018-06-09T18:56:51.655Z,24.11
2018-06-09T18:59:20.909Z,24.01
2018-06-09T19:01:50.367Z,24.00
2018-06-09T19:04:19.672Z,23.96
2018-06-09T19:06:49.224Z,23.95
2018-06-09T19:09:18.531Z,23.90
2018-06-09T19:11:47.970Z,23.59
2018-06-09T19:14:17.280Z,23.51
2018-06-09T19:16:46.812Z,23.41
2018-06-09T19:19:16.102Z,23.37
2018-06-09T19:21:45.586Z,23.47
2018-06-09T19:24:14.912Z,23.45
2018-06-09T19:26:44.344Z,23.45
2018-06-09T19:29:13.977Z,23.44
2018-06-09T19:31:43.623Z,23.37
2018-06-09T19:34:13.130Z,23.34
2018-06-09T19:36:42.492Z,23.24
2018-06-09T19:39:11.795Z,23.22
2018-06-09T19:41:41.137Z,23.17
2018-06-09T19:44:10.605Z,23.10
2018-06-09T19:46:39.927Z,23.03
2018-06-09T19:49:09.232Z,22.98
2018-06-09T19:51:39.158Z,22.97
2018-06-09T19:54:08.539Z,22.89
2018-06-09T19:56:37.965Z,22.86
2018-06-09T19:59:07.828Z,22.88
2018-06-09T20:01:37.296Z,22.93
2018-06-09T20:04:06.604Z,22.85
2018-06-09T20:06:36.551Z,22.89
2018-06-09T20:09:08.015Z,22.87
2018-06-09T20:11:37.538Z,22.96
2018-06-09T20:14:07.498Z,22.95
2018-06-09T20:16:37.075Z,22.90
2018-06-09T20:19:06.809Z,22.89
2018-06-09T20:21:36.505Z,22.86
2018-06-09T20:24:06.633Z,22.87
2018-06-09T20:26:38.076Z,22.77
2018-06-09T20:29:08.247Z,22.76
2018-06-09T20:31:38.753Z,22.74
2018-06-09T20:34:08.547Z,22.73
2018-06-09T20:36:38.710Z,22.68
2018-06-09T20:39:08.382Z,22.64
2018-06-09T20:41:37.784Z,22.57
2018-06-09T20:44:07.375Z,22.48
2018-06-09T20:46:37.085Z,22.34
2018-06-09T20:49:06.851Z,22.37
2018-06-09T20:51:36.993Z,22.42
2018-06-09T20:54:06.507Z,22.38
2018-06-09T20:56:36.366Z,22.34
2018-06-09T20:59:06.004Z,22.29
2018-06-09T21:01:35.345Z,22.36
2018-06-09T21:04:05.190Z,22.37
2018-06-09T21:06:35.309Z,22.37
2018-06-09T21:09:10.422Z,22.32
2018-06-09T21:11:44.732Z,22.31
2018-06-09T21:14:18.365Z,22.27
2018-06-09T21:16:52.997Z,22.22
2018-06-09T21:19:27.603Z,22.14
2018-06-09T21:21:57.525Z,22.12
2018-06-09T21:24:27.615Z,22.11
2018-06-09T21:27:02.807Z,22.03
2018-06-09T21:29:34.263Z,22.04
2018-06-09T21:32:10.280Z,21.97
2018-06-09T21:34:57.087Z,21.99
2018-06-09T21:37:32.053Z,21.98
2018-06-09T21:40:05.285Z,21.95
2018-06-09T21:42:41.207Z,21.84
2018-06-09T21:45:12.174Z,21.78
2018-06-09T21:47:56.180Z,21.92
2018-06-09T21:50:28.704Z,21.79
2018-06-09T21:52:58.621Z,21.78
2018-06-09T21:55:28.275Z,21.83
2018-06-09T21:57:57.848Z,21.81
2018-06-09T22:00:27.957Z,21.75
2018-06-09T22:02:57.971Z,21.78
2018-06-09T22:05:28.346Z,21.78
2018-06-09T22:07:58.432Z,21.75
2018-06-09T22:10:28.249Z,21.74
2018-06-09T22:12:58.134Z,21.67
2018-06-09T22:15:28.471Z,21.76
2018-06-09T22:17:58.304Z,21.80
2018-06-09T22:20:27.912Z,21.80
2018-06-09T22:22:57.783Z,21.84
2018-06-09T22:25:32.992Z,21.90
2018-06-09T22:28:02.919Z,21.85
2018-06-09T22:30:32.667Z,21.89
2018-06-09T22:33:02.238Z,21.70
2018-06-09T22:35:31.884Z,21.71
2018-06-09T22:38:01.324Z,21.77
2018-06-09T22:40:30.909Z,21.74
2018-06-09T22:43:00.574Z,21.74
2018-06-09T22:45:30.480Z,21.67
2018-06-09T22:48:00.473Z,21.67
2018-06-09T22:50:30.701Z,21.69
2018-06-09T22:53:00.256Z,21.69
2018-06-09T22:55:29.749Z,21.72
2018-06-09T22:57:59.385Z,21.84
2018-06-09T23:00:37.912Z,21.76
2018-06-09T23:03:07.522Z,21.69
2018-06-09T23:05:37.013Z,21.69
2018-06-09T23:08:06.827Z,21.61
2018-06-09T23:10:36.269Z,21.73
2018-06-09T23:13:05.893Z,21.64
2018-06-09T23:15:35.561Z,21.65
2018-06-09T23:18:05.099Z,21.52
2018-06-09T23:20:34.678Z,21.42
2018-06-09T23:23:04.229Z,21.27
2018-06-09T23:25:34.144Z,21.08
2018-06-09T23:28:04.381Z,20.83
2018-06-09T23:30:33.995Z,20.72
2018-06-09T23:33:03.643Z,20.50
2018-06-09T23:35:33.102Z,20.52
2018-06-09T23:38:03.222Z,20.47
2018-06-09T23:40:33.054Z,20.52
2018-06-09T23:43:02.504Z,20.61
2018-06-09T23:45:32.015Z,20.54
2018-06-09T23:48:01.718Z,20.36
2018-06-09T23:50:31.259Z,20.09
2018-06-09T23:53:00.811Z,19.87
2018-06-09T23:55:30.336Z,19.73
2018-06-09T23:57:59.904Z,19.66
